sensor_id;sensor_type;location;lat;lon;timestamp;P1;durP1;ratioP1;P2;durP2;ratioP2
82630;SDS011;72301;52.376;9.738;2024-03-08T00:01:30;9.25;;;4.15;;
82630;SDS011;72301;52.376;9.738;2024-03-08T00:03:58;9.63;;;4.72;;
82630;SDS011;72301;52.376;9.738;2024-03-08T00:06:23;9.57;;;4.60;;
82630;SDS011;72301;52.376;9.738;2024-03-08T00:08:50;9.18;;;4.07;;
82630;SDS011;72301;52.376;9.738;2024-03-08T00:11:16;10.05;;;4.70;;
82630;SDS011;72301;52.376;9.738;2024-03-08T00:13:41;9.10;;;4.75;;
82630;SDS011;72301;52.376;9.738;2024-03-08T00:16:09;8.68;;;3.97;;
82630;SDS011;72301;52.376;9.738;2024-03-08T00:18:35;9.70;;;4.30;;
82630;SDS011;72301;52.376;9.738;2024-03-08T00:21:03;10.55;;;4.47;;
82630;SDS011;72301;52.376;9.738;2024-03-08T00:23:34;9.77;;;4.50;;
82630;SDS011;72301;52.376;9.738;2024-03-08T00:25:59;9.63;;;4.28;;
82630;SDS011;72301;52.376;9.738;2024-03-08T00:28:28;9.02;;;4.32;;
82630;SDS011;72301;52.376;9.738;2024-03-08T00:30:54;9.65;;;4.65;;
82630;SDS011;72301;52.376;9.738;2024-03-08T00:33:19;8.80;;;4.22;;
82630;SDS011;72301;52.376;9.738;2024-03-08T00:35:49;9.13;;;4.28;;
82630;SDS011;72301;52.376;9.738;2024-03-08T00:38:15;8.88;;;4.10;;
82630;SDS011;72301;52.376;9.738;2024-03-08T00:40:41;9.48;;;4.28;;
82630;SDS011;72301;52.376;9.738;2024-03-08T00:43:09;10.75;;;5.00;;
82630;SDS011;72301;52.376;9.738;2024-03-08T00:45:35;9.90;;;4.10;;
82630;SDS011;72301;52.376;9.738;2024-03-08T00:48:02;9.20;;;4.18;;
82630;SDS011;72301;52.376;9.738;2024-03-08T00:50:31;8.60;;;3.95;;
82630;SDS011;72301;52.376;9.738;2024-03-08T00:52:56;8.98;;;4.18;;
82630;SDS011;72301;52.376;9.738;2024-03-08T00:55:22;10.50;;;5.10;;
82630;SDS011;72301;52.376;9.738;2024-03-08T00:57:48;10.07;;;3.78;;
82630;SDS011;72301;52.376;9.738;2024-03-08T01:00:14;8.23;;;4.00;;
82630;SDS011;72301;52.376;9.738;2024-03-08T01:02:40;8.55;;;4.20;;
82630;SDS011;72301;52.376;9.738;2024-03-08T01:05:06;9.90;;;4.60;;
82630;SDS011;72301;52.376;9.738;2024-03-08T01:07:37;10.82;;;4.57;;
82630;SDS011;72301;52.376;9.738;2024-03-08T01:10:06;9.70;;;4.35;;
82630;SDS011;72301;52.376;9.738;2024-03-08T01:12:35;9.32;;;4.85;;
82630;SDS011;72301;52.376;9.738;2024-03-08T01:15:01;9.63;;;4.32;;
82630;SDS011;72301;52.376;9.738;2024-03-08T01:17:27;9.43;;;5.03;;
82630;SDS011;72301;52.376;9.738;2024-03-08T01:19:56;9.05;;;4.40;;
82630;SDS011;72301;52.376;9.738;2024-03-08T01:22:21;8.80;;;4.13;;
82630;SDS011;72301;52.376;9.738;2024-03-08T01:24:56;8.27;;;3.47;;
82630;SDS011;72301;52.376;9.738;2024-03-08T01:27:29;9.57;;;4.45;;
82630;SDS011;72301;52.376;9.738;2024-03-08T01:30:00;9.95;;;5.00;;
82630;SDS011;72301;52.376;9.738;2024-03-08T01:32:26;9.90;;;4.30;;
82630;SDS011;72301;52.376;9.738;2024-03-08T01:34:54;10.32;;;4.22;;
82630;SDS011;72301;52.376;9.738;2024-03-08T01:37:23;9.60;;;4.25;;
82630;SDS011;72301;52.376;9.738;2024-03-08T01:39:49;10.15;;;4.65;;
82630;SDS011;72301;52.376;9.738;2024-03-08T01:42:25;9.95;;;4.07;;
82630;SDS011;72301;52.376;9.738;2024-03-08T01:44:51;9.60;;;4.53;;
82630;SDS011;72301;52.376;9.738;2024-03-08T01:47:17;8.20;;;4.00;;
82630;SDS011;72301;52.376;9.738;2024-03-08T01:49:45;9.45;;;3.65;;
82630;SDS011;72301;52.376;9.738;2024-03-08T01:52:11;8.98;;;3.70;;
82630;SDS011;72301;52.376;9.738;2024-03-08T01:54:37;8.02;;;3.85;;
82630;SDS011;72301;52.376;9.738;2024-03-08T01:57:06;8.63;;;4.10;;
82630;SDS011;72301;52.376;9.738;2024-03-08T01:59:31;8.13;;;3.83;;
82630;SDS011;72301;52.376;9.738;2024-03-08T02:02:03;9.05;;;4.35;;
82630;SDS011;72301;52.376;9.738;2024-03-08T02:04:31;9.45;;;4.60;;
82630;SDS011;72301;52.376;9.738;2024-03-08T02:07:00;9.75;;;4.10;;
82630;SDS011;72301;52.376;9.738;2024-03-08T02:09:26;9.70;;;4.10;;
82630;SDS011;72301;52.376;9.738;2024-03-08T02:11:54;7.63;;;3.92;;
82630;SDS011;72301;52.376;9.738;2024-03-08T02:14:20;8.27;;;3.80;;
82630;SDS011;72301;52.376;9.738;2024-03-08T02:16:53;8.65;;;3.95;;
82630;SDS011;72301;52.376;9.738;2024-03-08T02:19:19;10.48;;;4.13;;
82630;SDS011;72301;52.376;9.738;2024-03-08T02:21:45;8.35;;;3.90;;
82630;SDS011;72301;52.376;9.738;2024-03-08T02:24:17;9.23;;;4.03;;
82630;SDS011;72301;52.376;9.738;2024-03-08T02:26:43;9.68;;;4.40;;
82630;SDS011;72301;52.376;9.738;2024-03-08T02:29:14;10.30;;;4.43;;
82630;SDS011;72301;52.376;9.738;2024-03-08T02:31:43;8.77;;;4.20;;
82630;SDS011;72301;52.376;9.738;2024-03-08T02:34:08;9.43;;;4.00;;
82630;SDS011;72301;52.376;9.738;2024-03-08T02:36:37;9.75;;;4.25;;
82630;SDS011;72301;52.376;9.738;2024-03-08T02:39:03;9.65;;;4.13;;
82630;SDS011;72301;52.376;9.738;2024-03-08T02:41:31;8.82;;;3.72;;
82630;SDS011;72301;52.376;9.738;2024-03-08T02:43:57;8.50;;;3.72;;
82630;SDS011;72301;52.376;9.738;2024-03-08T02:46:23;9.07;;;4.22;;
82630;SDS011;72301;52.376;9.738;2024-03-08T02:48:49;8.50;;;4.00;;
82630;SDS011;72301;52.376;9.738;2024-03-08T02:51:16;8.13;;;3.90;;
82630;SDS011;72301;52.376;9.738;2024-03-08T02:53:41;9.52;;;4.10;;
82630;SDS011;72301;52.376;9.738;2024-03-08T02:56:20;8.45;;;4.00;;
82630;SDS011;72301;52.376;9.738;2024-03-08T03:02:12;9.88;;;3.67;;
82630;SDS011;72301;52.376;9.738;2024-03-08T03:04:39;8.50;;;4.15;;
82630;SDS011;72301;52.376;9.738;2024-03-08T03:10:25;8.25;;;3.63;;
82630;SDS011;72301;52.376;9.738;2024-03-08T03:16:03;8.20;;;3.70;;
82630;SDS011;72301;52.376;9.738;2024-03-08T03:22:32;8.15;;;3.35;;
82630;SDS011;72301;52.376;9.738;2024-03-08T03:25:39;8.85;;;3.95;;
82630;SDS011;72301;52.376;9.738;2024-03-08T03:28:07;8.52;;;4.03;;
82630;SDS011;72301;52.376;9.738;2024-03-08T03:30:46;9.77;;;4.10;;
82630;SDS011;72301;52.376;9.738;2024-03-08T03:33:23;9.50;;;4.05;;
82630;SDS011;72301;52.376;9.738;2024-03-08T03:35:50;9.57;;;4.28;;
82630;SDS011;72301;52.376;9.738;2024-03-08T03:38:16;9.13;;;4.07;;
82630;SDS011;72301;52.376;9.738;2024-03-08T03:40:42;9.25;;;4.05;;
82630;SDS011;72301;52.376;9.738;2024-03-08T03:43:10;8.45;;;4.07;;
82630;SDS011;72301;52.376;9.738;2024-03-08T03:45:36;9.90;;;4.60;;
82630;SDS011;72301;52.376;9.738;2024-03-08T03:48:03;7.65;;;3.75;;
82630;SDS011;72301;52.376;9.738;2024-03-08T03:50:38;8.32;;;3.55;;
82630;SDS011;72301;52.376;9.738;2024-03-08T03:53:07;7.72;;;3.53;;
82630;SDS011;72301;52.376;9.738;2024-03-08T03:55:33;8.90;;;3.55;;
82630;SDS011;72301;52.376;9.738;2024-03-08T03:57:59;9.00;;;3.95;;
82630;SDS011;72301;52.376;9.738;2024-03-08T04:00:26;8.07;;;3.88;;
82630;SDS011;72301;52.376;9.738;2024-03-08T04:02:52;8.07;;;3.78;;
82630;SDS011;72301;52.376;9.738;2024-03-08T04:05:18;9.10;;;4.22;;
82630;SDS011;72301;52.376;9.738;2024-03-08T04:07:44;8.68;;;4.15;;
82630;SDS011;72301;52.376;9.738;2024-03-08T04:10:11;9.02;;;4.25;;
82630;SDS011;72301;52.376;9.738;2024-03-08T04:12:37;8.13;;;3.88;;
82630;SDS011;72301;52.376;9.738;2024-03-08T04:15:06;9.27;;;3.40;;
82630;SDS011;72301;52.376;9.738;2024-03-08T04:17:32;9.10;;;3.85;;
82630;SDS011;72301;52.376;9.738;2024-03-08T04:20:02;8.93;;;3.83;;
82630;SDS011;72301;52.376;9.738;2024-03-08T04:22:34;8.85;;;4.00;;
82630;SDS011;72301;52.376;9.738;2024-03-08T04:25:01;8.05;;;3.80;;
82630;SDS011;72301;52.376;9.738;2024-03-08T04:27:27;8.52;;;3.28;;
82630;SDS011;72301;52.376;9.738;2024-03-08T04:29:56;8.77;;;3.67;;
82630;SDS011;72301;52.376;9.738;2024-03-08T04:32:24;8.07;;;3.47;;
82630;SDS011;72301;52.376;9.738;2024-03-08T04:34:50;8.07;;;3.75;;
82630;SDS011;72301;52.376;9.738;2024-03-08T04:37:15;9.10;;;3.70;;
82630;SDS011;72301;52.376;9.738;2024-03-08T04:39:46;7.57;;;3.80;;
82630;SDS011;72301;52.376;9.738;2024-03-08T04:42:21;8.13;;;3.80;;
82630;SDS011;72301;52.376;9.738;2024-03-08T04:44:47;9.75;;;4.15;;
82630;SDS011;72301;52.376;9.738;2024-03-08T04:47:13;9.13;;;4.10;;
82630;SDS011;72301;52.376;9.738;2024-03-08T04:49:46;9.13;;;3.78;;
82630;SDS011;72301;52.376;9.738;2024-03-08T04:52:11;8.27;;;4.20;;
82630;SDS011;72301;52.376;9.738;2024-03-08T04:54:37;8.93;;;3.78;;
82630;SDS011;72301;52.376;9.738;2024-03-08T04:57:03;9.20;;;3.88;;
82630;SDS011;72301;52.376;9.738;2024-03-08T04:59:29;8.38;;;3.90;;
82630;SDS011;72301;52.376;9.738;2024-03-08T05:01:55;9.52;;;3.67;;
82630;SDS011;72301;52.376;9.738;2024-03-08T05:04:24;8.45;;;3.88;;
82630;SDS011;72301;52.376;9.738;2024-03-08T05:06:52;9.52;;;4.00;;
82630;SDS011;72301;52.376;9.738;2024-03-08T05:09:18;8.85;;;4.00;;
82630;SDS011;72301;52.376;9.738;2024-03-08T05:11:44;8.80;;;4.40;;
82630;SDS011;72301;52.376;9.738;2024-03-08T05:14:11;8.52;;;3.70;;
82630;SDS011;72301;52.376;9.738;2024-03-08T05:16:44;9.60;;;3.92;;
82630;SDS011;72301;52.376;9.738;2024-03-08T05:19:13;8.45;;;4.00;;
82630;SDS011;72301;52.376;9.738;2024-03-08T05:21:45;8.63;;;4.15;;
82630;SDS011;72301;52.376;9.738;2024-03-08T05:24:11;8.45;;;4.40;;
82630;SDS011;72301;52.376;9.738;2024-03-08T05:26:38;9.07;;;3.83;;
82630;SDS011;72301;52.376;9.738;2024-03-08T05:29:04;9.98;;;4.38;;
82630;SDS011;72301;52.376;9.738;2024-03-08T05:31:31;9.05;;;4.13;;
82630;SDS011;72301;52.376;9.738;2024-03-08T05:34:05;7.97;;;3.55;;
82630;SDS011;72301;52.376;9.738;2024-03-08T05:36:30;10.73;;;4.60;;
82630;SDS011;72301;52.376;9.738;2024-03-08T05:38:57;8.30;;;4.10;;
82630;SDS011;72301;52.376;9.738;2024-03-08T05:41:23;8.98;;;4.57;;
82630;SDS011;72301;52.376;9.738;2024-03-08T05:43:53;9.55;;;4.50;;
82630;SDS011;72301;52.376;9.738;2024-03-08T05:46:21;10.20;;;4.47;;
82630;SDS011;72301;52.376;9.738;2024-03-08T05:48:47;10.13;;;4.72;;
82630;SDS011;72301;52.376;9.738;2024-03-08T05:51:13;8.35;;;3.88;;
82630;SDS011;72301;52.376;9.738;2024-03-08T05:53:38;10.00;;;4.70;;
82630;SDS011;72301;52.376;9.738;2024-03-08T05:56:04;10.45;;;4.47;;
82630;SDS011;72301;52.376;9.738;2024-03-08T05:58:35;9.77;;;4.13;;
82630;SDS011;72301;52.376;9.738;2024-03-08T06:01:01;9.00;;;3.70;;
82630;SDS011;72301;52.376;9.738;2024-03-08T06:03:32;9.27;;;4.43;;
82630;SDS011;72301;52.376;9.738;2024-03-08T06:05:59;8.13;;;3.80;;
82630;SDS011;72301;52.376;9.738;2024-03-08T06:08:28;9.60;;;4.15;;
82630;SDS011;72301;52.376;9.738;2024-03-08T06:10:55;9.32;;;4.15;;
82630;SDS011;72301;52.376;9.738;2024-03-08T06:13:30;9.80;;;4.25;;
82630;SDS011;72301;52.376;9.738;2024-03-08T06:15:56;8.60;;;4.15;;
82630;SDS011;72301;52.376;9.738;2024-03-08T06:18:22;8.63;;;3.97;;
82630;SDS011;72301;52.376;9.738;2024-03-08T06:20:47;9.20;;;4.93;;
82630;SDS011;72301;52.376;9.738;2024-03-08T06:23:13;8.27;;;4.10;;
82630;SDS011;72301;52.376;9.738;2024-03-08T06:25:43;8.88;;;4.38;;
82630;SDS011;72301;52.376;9.738;2024-03-08T06:28:16;9.48;;;4.63;;
82630;SDS011;72301;52.376;9.738;2024-03-08T06:30:42;8.40;;;3.70;;
82630;SDS011;72301;52.376;9.738;2024-03-08T06:33:08;8.40;;;4.72;;
82630;SDS011;72301;52.376;9.738;2024-03-08T06:35:33;8.00;;;3.70;;
82630;SDS011;72301;52.376;9.738;2024-03-08T06:38:03;8.27;;;4.38;;
82630;SDS011;72301;52.376;9.738;2024-03-08T06:40:29;9.40;;;4.47;;
82630;SDS011;72301;52.376;9.738;2024-03-08T06:42:54;9.27;;;4.70;;
82630;SDS011;72301;52.376;9.738;2024-03-08T06:45:20;9.18;;;4.25;;
82630;SDS011;72301;52.376;9.738;2024-03-08T06:47:46;9.40;;;4.55;;
82630;SDS011;72301;52.376;9.738;2024-03-08T06:50:12;7.60;;;3.85;;
82630;SDS011;72301;52.376;9.738;2024-03-08T06:52:40;9.52;;;4.38;;
82630;SDS011;72301;52.376;9.738;2024-03-08T06:55:07;9.27;;;4.32;;
82630;SDS011;72301;52.376;9.738;2024-03-08T06:57:34;8.63;;;4.10;;
82630;SDS011;72301;52.376;9.738;2024-03-08T07:00:00;10.98;;;4.72;;
82630;SDS011;72301;52.376;9.738;2024-03-08T07:02:26;9.77;;;4.35;;
82630;SDS011;72301;52.376;9.738;2024-03-08T07:04:52;8.68;;;4.45;;
82630;SDS011;72301;52.376;9.738;2024-03-08T07:07:18;9.63;;;4.78;;
82630;SDS011;72301;52.376;9.738;2024-03-08T07:09:46;11.13;;;5.25;;
82630;SDS011;72301;52.376;9.738;2024-03-08T07:12:13;9.65;;;4.15;;
82630;SDS011;72301;52.376;9.738;2024-03-08T07:14:39;9.88;;;4.68;;
82630;SDS011;72301;52.376;9.738;2024-03-08T07:17:10;8.52;;;4.20;;
82630;SDS011;72301;52.376;9.738;2024-03-08T07:19:36;9.80;;;4.80;;
82630;SDS011;72301;52.376;9.738;2024-03-08T07:22:03;8.43;;;4.20;;
82630;SDS011;72301;52.376;9.738;2024-03-08T07:24:29;9.98;;;5.07;;
82630;SDS011;72301;52.376;9.738;2024-03-08T07:27:15;10.00;;;3.88;;
82630;SDS011;72301;52.376;9.738;2024-03-08T07:29:41;8.52;;;4.13;;
82630;SDS011;72301;52.376;9.738;2024-03-08T07:32:06;7.85;;;3.15;;
82630;SDS011;72301;52.376;9.738;2024-03-08T07:34:48;8.30;;;4.38;;
82630;SDS011;72301;52.376;9.738;2024-03-08T07:37:15;8.65;;;3.95;;
82630;SDS011;72301;52.376;9.738;2024-03-08T07:39:41;9.60;;;4.15;;
82630;SDS011;72301;52.376;9.738;2024-03-08T07:42:08;7.70;;;4.40;;
82630;SDS011;72301;52.376;9.738;2024-03-08T07:44:36;9.70;;;4.60;;
82630;SDS011;72301;52.376;9.738;2024-03-08T07:47:02;9.27;;;4.22;;
82630;SDS011;72301;52.376;9.738;2024-03-08T07:49:28;9.10;;;3.83;;
82630;SDS011;72301;52.376;9.738;2024-03-08T07:51:55;8.75;;;4.35;;
82630;SDS011;72301;52.376;9.738;2024-03-08T07:54:21;10.05;;;4.38;;
82630;SDS011;72301;52.376;9.738;2024-03-08T07:56:47;7.90;;;3.53;;
82630;SDS011;72301;52.376;9.738;2024-03-08T07:59:12;8.38;;;4.07;;
82630;SDS011;72301;52.376;9.738;2024-03-08T08:01:38;9.25;;;4.25;;
82630;SDS011;72301;52.376;9.738;2024-03-08T08:04:04;8.85;;;4.22;;
82630;SDS011;72301;52.376;9.738;2024-03-08T08:06:30;8.98;;;4.10;;
82630;SDS011;72301;52.376;9.738;2024-03-08T08:08:59;8.43;;;4.05;;
82630;SDS011;72301;52.376;9.738;2024-03-08T08:11:26;8.15;;;3.85;;
82630;SDS011;72301;52.376;9.738;2024-03-08T08:13:53;8.30;;;4.07;;
82630;SDS011;72301;52.376;9.738;2024-03-08T08:16:20;7.68;;;4.25;;
82630;SDS011;72301;52.376;9.738;2024-03-08T08:18:48;7.90;;;4.07;;
82630;SDS011;72301;52.376;9.738;2024-03-08T08:21:13;9.60;;;4.82;;
82630;SDS011;72301;52.376;9.738;2024-03-08T08:23:39;8.52;;;3.78;;
82630;SDS011;72301;52.376;9.738;2024-03-08T08:26:05;7.82;;;3.78;;
82630;SDS011;72301;52.376;9.738;2024-03-08T08:28:32;7.57;;;3.70;;
82630;SDS011;72301;52.376;9.738;2024-03-08T08:30:58;8.45;;;3.67;;
82630;SDS011;72301;52.376;9.738;2024-03-08T08:33:24;8.93;;;4.30;;
82630;SDS011;72301;52.376;9.738;2024-03-08T08:35:50;9.35;;;4.63;;
82630;SDS011;72301;52.376;9.738;2024-03-08T08:38:22;8.27;;;4.07;;
82630;SDS011;72301;52.376;9.738;2024-03-08T08:41:23;9.23;;;4.30;;
82630;SDS011;72301;52.376;9.738;2024-03-08T08:43:53;8.77;;;4.13;;
82630;SDS011;72301;52.376;9.738;2024-03-08T08:49:23;8.98;;;4.45;;
82630;SDS011;72301;52.376;9.738;2024-03-08T08:51:52;7.60;;;4.25;;
82630;SDS011;72301;52.376;9.738;2024-03-08T08:54:18;7.93;;;4.20;;
82630;SDS011;72301;52.376;9.738;2024-03-08T08:56:44;8.10;;;3.70;;
82630;SDS011;72301;52.376;9.738;2024-03-08T08:59:35;8.05;;;3.80;;
82630;SDS011;72301;52.376;9.738;2024-03-08T09:02:05;7.65;;;3.65;;
82630;SDS011;72301;52.376;9.738;2024-03-08T09:04:34;9.45;;;4.28;;
82630;SDS011;72301;52.376;9.738;2024-03-08T09:10:05;8.48;;;3.75;;
82630;SDS011;72301;52.376;9.738;2024-03-08T09:12:34;9.02;;;3.60;;
82630;SDS011;72301;52.376;9.738;2024-03-08T09:18:10;8.90;;;4.40;;
82630;SDS011;72301;52.376;9.738;2024-03-08T09:30:17;9.52;;;4.70;;
82630;SDS011;72301;52.376;9.738;2024-03-08T09:32:56;11.10;;;4.72;;
82630;SDS011;72301;52.376;9.738;2024-03-08T09:35:59;8.80;;;3.78;;
82630;SDS011;72301;52.376;9.738;2024-03-08T09:38:29;8.20;;;3.95;;
82630;SDS011;72301;52.376;9.738;2024-03-08T09:44:22;7.97;;;3.95;;
82630;SDS011;72301;52.376;9.738;2024-03-08T09:47:11;8.52;;;4.70;;
82630;SDS011;72301;52.376;9.738;2024-03-08T09:49:45;8.02;;;4.15;;
82630;SDS011;72301;52.376;9.738;2024-03-08T09:52:31;13.30;;;4.65;;
82630;SDS011;72301;52.376;9.738;2024-03-08T09:55:17;8.93;;;4.65;;
82630;SDS011;72301;52.376;9.738;2024-03-08T09:58:00;7.38;;;3.50;;
82630;SDS011;72301;52.376;9.738;2024-03-08T10:01:19;8.00;;;3.78;;
82630;SDS011;72301;52.376;9.738;2024-03-08T10:07:12;9.18;;;4.75;;
82630;SDS011;72301;52.376;9.738;2024-03-08T10:16:53;9.73;;;4.60;;
82630;SDS011;72301;52.376;9.738;2024-03-08T10:19:30;8.00;;;3.95;;
82630;SDS011;72301;52.376;9.738;2024-03-08T10:29:02;8.45;;;4.10;;
82630;SDS011;72301;52.376;9.738;2024-03-08T10:31:59;7.97;;;3.92;;
82630;SDS011;72301;52.376;9.738;2024-03-08T10:34:42;8.80;;;4.40;;
82630;SDS011;72301;52.376;9.738;2024-03-08T10:51:02;7.50;;;3.70;;
82630;SDS011;72301;52.376;9.738;2024-03-08T10:53:57;8.68;;;4.28;;
82630;SDS011;72301;52.376;9.738;2024-03-08T10:56:25;7.40;;;3.67;;
82630;SDS011;72301;52.376;9.738;2024-03-08T10:58:53;9.10;;;4.65;;
82630;SDS011;72301;52.376;9.738;2024-03-08T11:01:28;8.75;;;4.80;;
82630;SDS011;72301;52.376;9.738;2024-03-08T11:03:57;9.70;;;4.57;;
82630;SDS011;72301;52.376;9.738;2024-03-08T11:06:41;9.27;;;4.53;;
82630;SDS011;72301;52.376;9.738;2024-03-08T11:14:58;7.40;;;3.53;;
82630;SDS011;72301;52.376;9.738;2024-03-08T11:20:08;7.53;;;3.90;;
82630;SDS011;72301;52.376;9.738;2024-03-08T11:22:47;7.95;;;4.00;;
82630;SDS011;72301;52.376;9.738;2024-03-08T11:25:36;8.48;;;4.10;;
82630;SDS011;72301;52.376;9.738;2024-03-08T11:28:16;8.48;;;4.65;;
82630;SDS011;72301;52.376;9.738;2024-03-08T11:33:30;7.93;;;3.88;;
82630;SDS011;72301;52.376;9.738;2024-03-08T11:36:08;8.32;;;4.20;;
82630;SDS011;72301;52.376;9.738;2024-03-08T11:38:51;9.93;;;5.18;;
82630;SDS011;72301;52.376;9.738;2024-03-08T11:44:05;8.77;;;4.28;;
82630;SDS011;72301;52.376;9.738;2024-03-08T11:46:31;8.10;;;4.05;;
82630;SDS011;72301;52.376;9.738;2024-03-08T11:49:04;10.15;;;4.10;;
82630;SDS011;72301;52.376;9.738;2024-03-08T11:51:33;8.68;;;4.45;;
82630;SDS011;72301;52.376;9.738;2024-03-08T11:56:54;8.13;;;4.60;;
82630;SDS011;72301;52.376;9.738;2024-03-08T12:00:14;8.50;;;3.92;;
82630;SDS011;72301;52.376;9.738;2024-03-08T12:02:17;9.48;;;4.60;;
82630;SDS011;72301;52.376;9.738;2024-03-08T12:04:46;8.43;;;4.32;;
82630;SDS011;72301;52.376;9.738;2024-03-08T12:13:01;9.65;;;4.93;;
82630;SDS011;72301;52.376;9.738;2024-03-08T12:25:30;8.45;;;4.63;;
82630;SDS011;72301;52.376;9.738;2024-03-08T12:31:26;7.90;;;4.03;;
82630;SDS011;72301;52.376;9.738;2024-03-08T12:34:30;12.30;;;5.53;;
82630;SDS011;72301;52.376;9.738;2024-03-08T12:37:02;9.48;;;3.88;;
82630;SDS011;72301;52.376;9.738;2024-03-08T12:42:21;8.70;;;4.30;;
82630;SDS011;72301;52.376;9.738;2024-03-08T12:45:08;12.98;;;4.65;;
82630;SDS011;72301;52.376;9.738;2024-03-08T12:47:54;8.60;;;4.07;;
82630;SDS011;72301;52.376;9.738;2024-03-08T12:50:28;9.68;;;4.10;;
82630;SDS011;72301;52.376;9.738;2024-03-08T12:56:28;9.30;;;5.03;;
82630;SDS011;72301;52.376;9.738;2024-03-08T12:59:01;10.02;;;4.13;;
82630;SDS011;72301;52.376;9.738;2024-03-08T13:01:31;8.35;;;4.05;;
82630;SDS011;72301;52.376;9.738;2024-03-08T13:04:18;10.75;;;4.55;;
82630;SDS011;72301;52.376;9.738;2024-03-08T13:07:23;10.55;;;4.90;;
82630;SDS011;72301;52.376;9.738;2024-03-08T13:09:53;11.40;;;5.10;;
82630;SDS011;72301;52.376;9.738;2024-03-08T13:15:42;9.93;;;5.00;;
82630;SDS011;72301;52.376;9.738;2024-03-08T13:18:17;9.57;;;5.10;;
82630;SDS011;72301;52.376;9.738;2024-03-08T13:21:02;10.32;;;5.30;;
82630;SDS011;72301;52.376;9.738;2024-03-08T13:23:54;11.65;;;6.80;;
82630;SDS011;72301;52.376;9.738;2024-03-08T13:26:32;10.00;;;4.60;;
82630;SDS011;72301;52.376;9.738;2024-03-08T13:29:02;15.38;;;9.02;;
82630;SDS011;72301;52.376;9.738;2024-03-08T13:31:28;22.35;;;11.77;;
82630;SDS011;72301;52.376;9.738;2024-03-08T13:33:54;18.85;;;9.82;;
82630;SDS011;72301;52.376;9.738;2024-03-08T13:36:26;16.75;;;7.82;;
82630;SDS011;72301;52.376;9.738;2024-03-08T13:39:04;13.80;;;6.68;;
82630;SDS011;72301;52.376;9.738;2024-03-08T13:48:28;13.27;;;6.90;;
82630;SDS011;72301;52.376;9.738;2024-03-08T13:51:46;13.65;;;6.25;;
82630;SDS011;72301;52.376;9.738;2024-03-08T13:54:20;11.70;;;6.38;;
82630;SDS011;72301;52.376;9.738;2024-03-08T13:56:55;12.63;;;6.78;;
82630;SDS011;72301;52.376;9.738;2024-03-08T13:59:21;13.82;;;6.78;;
82630;SDS011;72301;52.376;9.738;2024-03-08T14:01:57;12.80;;;6.78;;
82630;SDS011;72301;52.376;9.738;2024-03-08T14:04:29;12.27;;;6.35;;
82630;SDS011;72301;52.376;9.738;2024-03-08T14:06:58;18.10;;;7.95;;
82630;SDS011;72301;52.376;9.738;2024-03-08T14:09:54;12.57;;;6.22;;
82630;SDS011;72301;52.376;9.738;2024-03-08T14:12:28;12.93;;;7.22;;
82630;SDS011;72301;52.376;9.738;2024-03-08T14:15:00;13.60;;;6.20;;
82630;SDS011;72301;52.376;9.738;2024-03-08T14:17:33;13.20;;;6.40;;
82630;SDS011;72301;52.376;9.738;2024-03-08T14:19:58;13.82;;;7.00;;
82630;SDS011;72301;52.376;9.738;2024-03-08T14:22:33;12.40;;;6.20;;
82630;SDS011;72301;52.376;9.738;2024-03-08T14:24:58;14.45;;;7.03;;
82630;SDS011;72301;52.376;9.738;2024-03-08T14:27:24;12.50;;;6.03;;
82630;SDS011;72301;52.376;9.738;2024-03-08T14:29:57;13.70;;;6.43;;
82630;SDS011;72301;52.376;9.738;2024-03-08T14:32:46;11.77;;;5.85;;
82630;SDS011;72301;52.376;9.738;2024-03-08T14:35:25;11.57;;;6.28;;
82630;SDS011;72301;52.376;9.738;2024-03-08T14:37:57;10.85;;;6.22;;
82630;SDS011;72301;52.376;9.738;2024-03-08T14:40:23;11.50;;;6.28;;
82630;SDS011;72301;52.376;9.738;2024-03-08T14:42:50;10.52;;;5.93;;
82630;SDS011;72301;52.376;9.738;2024-03-08T14:45:16;10.25;;;4.97;;
82630;SDS011;72301;52.376;9.738;2024-03-08T14:47:46;13.48;;;5.90;;
82630;SDS011;72301;52.376;9.738;2024-03-08T14:50:22;12.63;;;5.60;;
82630;SDS011;72301;52.376;9.738;2024-03-08T14:52:55;11.77;;;5.13;;
82630;SDS011;72301;52.376;9.738;2024-03-08T14:55:25;12.15;;;5.53;;
82630;SDS011;72301;52.376;9.738;2024-03-08T14:57:55;10.45;;;5.18;;
82630;SDS011;72301;52.376;9.738;2024-03-08T15:00:39;9.82;;;5.07;;
82630;SDS011;72301;52.376;9.738;2024-03-08T15:03:07;10.90;;;5.82;;
82630;SDS011;72301;52.376;9.738;2024-03-08T15:05:41;12.43;;;6.45;;
82630;SDS011;72301;52.376;9.738;2024-03-08T15:08:16;10.25;;;5.68;;
82630;SDS011;72301;52.376;9.738;2024-03-08T15:10:45;12.55;;;6.40;;
82630;SDS011;72301;52.376;9.738;2024-03-08T15:13:12;12.98;;;6.30;;
82630;SDS011;72301;52.376;9.738;2024-03-08T15:16:01;11.48;;;5.70;;
82630;SDS011;72301;52.376;9.738;2024-03-08T15:18:43;12.63;;;6.45;;
82630;SDS011;72301;52.376;9.738;2024-03-08T15:21:16;13.88;;;6.35;;
82630;SDS011;72301;52.376;9.738;2024-03-08T15:23:47;12.07;;;6.47;;
82630;SDS011;72301;52.376;9.738;2024-03-08T15:26:17;12.55;;;6.22;;
82630;SDS011;72301;52.376;9.738;2024-03-08T15:28:50;11.95;;;5.75;;
82630;SDS011;72301;52.376;9.738;2024-03-08T15:31:19;12.27;;;5.90;;
82630;SDS011;72301;52.376;9.738;2024-03-08T15:33:50;10.57;;;5.38;;
82630;SDS011;72301;52.376;9.738;2024-03-08T15:36:32;10.45;;;6.53;;
82630;SDS011;72301;52.376;9.738;2024-03-08T15:38:59;12.70;;;6.28;;
82630;SDS011;72301;52.376;9.738;2024-03-08T15:41:28;11.35;;;5.88;;
82630;SDS011;72301;52.376;9.738;2024-03-08T15:43:55;13.50;;;6.35;;
82630;SDS011;72301;52.376;9.738;2024-03-08T15:46:24;10.45;;;5.60;;
82630;SDS011;72301;52.376;9.738;2024-03-08T15:48:53;14.23;;;7.55;;
82630;SDS011;72301;52.376;9.738;2024-03-08T15:51:19;13.20;;;6.90;;
82630;SDS011;72301;52.376;9.738;2024-03-08T15:53:45;18.02;;;10.93;;
82630;SDS011;72301;52.376;9.738;2024-03-08T15:56:18;18.15;;;10.93;;
82630;SDS011;72301;52.376;9.738;2024-03-08T15:58:45;18.73;;;10.23;;
82630;SDS011;72301;52.376;9.738;2024-03-08T16:01:10;20.50;;;11.10;;
82630;SDS011;72301;52.376;9.738;2024-03-08T16:03:38;18.95;;;11.02;;
82630;SDS011;72301;52.376;9.738;2024-03-08T16:06:04;17.33;;;10.38;;
82630;SDS011;72301;52.376;9.738;2024-03-08T16:08:34;21.27;;;10.55;;
82630;SDS011;72301;52.376;9.738;2024-03-08T16:11:02;16.88;;;9.88;;
82630;SDS011;72301;52.376;9.738;2024-03-08T16:13:36;20.70;;;10.30;;
82630;SDS011;72301;52.376;9.738;2024-03-08T16:16:05;15.73;;;9.35;;
82630;SDS011;72301;52.376;9.738;2024-03-08T16:18:31;18.15;;;8.98;;
82630;SDS011;72301;52.376;9.738;2024-03-08T16:23:32;20.17;;;9.02;;
82630;SDS011;72301;52.376;9.738;2024-03-08T16:25:58;18.65;;;9.10;;
82630;SDS011;72301;52.376;9.738;2024-03-08T16:28:23;14.93;;;8.27;;
82630;SDS011;72301;52.376;9.738;2024-03-08T16:30:53;19.80;;;9.20;;
82630;SDS011;72301;52.376;9.738;2024-03-08T16:33:23;15.95;;;9.25;;
82630;SDS011;72301;52.376;9.738;2024-03-08T16:35:52;18.83;;;10.30;;
82630;SDS011;72301;52.376;9.738;2024-03-08T16:38:18;15.13;;;8.35;;
82630;SDS011;72301;52.376;9.738;2024-03-08T16:40:46;19.02;;;9.90;;
82630;SDS011;72301;52.376;9.738;2024-03-08T16:45:46;16.55;;;7.85;;
82630;SDS011;72301;52.376;9.738;2024-03-08T16:48:18;20.55;;;9.15;;
82630;SDS011;72301;52.376;9.738;2024-03-08T16:50:44;18.85;;;8.88;;
82630;SDS011;72301;52.376;9.738;2024-03-08T16:53:10;18.45;;;8.95;;
82630;SDS011;72301;52.376;9.738;2024-03-08T16:55:36;16.73;;;8.35;;
82630;SDS011;72301;52.376;9.738;2024-03-08T16:58:02;17.52;;;8.90;;
82630;SDS011;72301;52.376;9.738;2024-03-08T17:00:29;16.10;;;8.60;;
82630;SDS011;72301;52.376;9.738;2024-03-08T17:02:55;16.80;;;9.18;;
82630;SDS011;72301;52.376;9.738;2024-03-08T17:05:25;24.63;;;10.75;;
82630;SDS011;72301;52.376;9.738;2024-03-08T17:07:53;15.18;;;7.63;;